Airport View

Enter AWOS ICAO identifier for current METAR.

ex. KFNL

KMER 022245Z 29006KT 10SM FEW048 37/10 A2992

2 Jun 2020 23:37

Frequency: 124.475

Phone: 209-725-0104

Other Area AWOS: KMCE - KMOD - KMAE - KO22

TAF KMER 021720Z 0218/0318 32006KT P6SM BKN250 AMD NOT SKED